createdAt,value
2023-04-26T04:31:05.409Z,3.05
2023-04-26T04:33:31.963Z,3.04
2023-04-26T04:35:58.527Z,3.06
2023-04-26T04:38:25.126Z,3.04
2023-04-26T04:40:51.675Z,3.03
2023-04-26T04:43:18.247Z,3.05
2023-04-26T04:45:44.797Z,3.13
2023-04-26T04:48:11.432Z,3.18
2023-04-26T04:50:41.069Z,3.26
2023-04-26T04:53:08.026Z,3.33
2023-04-26T04:55:34.994Z,3.39
2023-04-26T04:58:01.544Z,3.41
2023-04-26T05:00:28.156Z,3.48
2023-04-26T05:02:54.861Z,3.51
2023-04-26T05:05:21.522Z,3.58
2023-04-26T05:07:48.095Z,3.63
2023-04-26T05:10:14.864Z,3.65
2023-04-26T05:12:41.382Z,3.67
2023-04-26T05:15:08.195Z,3.66
2023-04-26T05:17:34.830Z,3.62
2023-04-26T05:20:02.727Z,3.60
2023-04-26T05:22:29.286Z,3.58
2023-04-26T05:24:55.853Z,3.58
2023-04-26T05:27:22.430Z,3.63
2023-04-26T05:29:48.958Z,3.67
2023-04-26T05:32:15.474Z,3.74
2023-04-26T05:34:42.027Z,3.88
2023-04-26T05:37:08.543Z,4.07
2023-04-26T05:39:35.108Z,4.27
2023-04-26T05:42:01.638Z,4.29
2023-04-26T05:44:28.206Z,4.35
2023-04-26T05:46:54.737Z,4.31
2023-04-26T05:49:21.261Z,4.32
2023-04-26T05:51:47.884Z,4.32
2023-04-26T05:54:14.473Z,4.28
2023-04-26T05:56:40.988Z,4.25
2023-04-26T05:59:08.556Z,4.19
2023-04-26T06:01:35.119Z,4.11
2023-04-26T06:04:02.155Z,4.04
2023-04-26T06:06:28.987Z,4.14
2023-04-26T06:08:55.704Z,4.32
2023-04-26T06:11:22.362Z,4.56
2023-04-26T06:13:48.918Z,4.74
2023-04-26T06:16:15.878Z,4.80
2023-04-26T06:18:43.036Z,4.73
2023-04-26T06:21:09.663Z,4.70
2023-04-26T06:23:36.212Z,4.72
2023-04-26T06:26:02.762Z,4.73
2023-04-26T06:28:29.347Z,4.74
2023-04-26T06:30:55.981Z,4.76
2023-04-26T06:33:22.563Z,4.73
2023-04-26T06:35:49.136Z,4.79
2023-04-26T06:38:15.721Z,4.81
2023-04-26T06:40:42.815Z,4.85
2023-04-26T06:43:09.414Z,4.90
2023-04-26T06:45:35.967Z,4.96
2023-04-26T06:48:02.579Z,4.94
2023-04-26T06:50:29.124Z,4.98
2023-04-26T06:52:55.712Z,5.02
2023-04-26T06:55:22.282Z,5.09
2023-04-26T06:57:49.847Z,5.16
2023-04-26T07:00:16.590Z,5.25
2023-04-26T07:02:43.261Z,5.42
2023-04-26T07:05:10.153Z,5.65
2023-04-26T07:07:36.757Z,5.85
2023-04-26T07:10:03.890Z,5.81
2023-04-26T07:12:30.441Z,5.69
2023-04-26T07:14:57.431Z,5.57
2023-04-26T07:17:24.037Z,5.49
2023-04-26T07:19:50.554Z,5.48
2023-04-26T07:22:17.097Z,5.46
2023-04-26T07:24:43.637Z,5.51
2023-04-26T07:27:10.184Z,5.63
2023-04-26T07:29:36.715Z,5.75
2023-04-26T07:32:03.341Z,5.90
2023-04-26T07:34:29.935Z,5.85
2023-04-26T07:36:56.487Z,5.94
2023-04-26T07:39:23.017Z,6.06
2023-04-26T07:41:49.565Z,6.24
2023-04-26T07:44:16.232Z,6.48
2023-04-26T07:46:42.823Z,6.53
2023-04-26T07:49:09.375Z,6.52
2023-04-26T07:51:36.129Z,6.43
2023-04-26T07:54:02.664Z,6.30
2023-04-26T07:56:29.201Z,6.09
2023-04-26T07:58:55.729Z,5.67
2023-04-26T08:01:22.285Z,5.26
2023-04-26T08:03:49.051Z,5.02
2023-04-26T08:06:16.046Z,4.96
2023-04-26T08:08:42.630Z,4.88
2023-04-26T08:11:09.167Z,4.82
2023-04-26T08:13:35.824Z,4.89
2023-04-26T08:16:02.459Z,4.98
2023-04-26T08:18:29.059Z,5.08
2023-04-26T08:20:55.615Z,5.20
2023-04-26T08:23:22.404Z,5.38
2023-04-26T08:25:49.079Z,5.49
2023-04-26T08:28:16.085Z,5.62
2023-04-26T08:30:42.923Z,5.74
2023-04-26T08:33:09.996Z,5.78
2023-04-26T08:35:36.583Z,5.92
2023-04-26T08:38:03.182Z,6.17
2023-04-26T08:40:29.797Z,6.56
2023-04-26T08:42:56.341Z,6.97
2023-04-26T08:45:22.978Z,7.23
2023-04-26T08:47:50.649Z,7.28
2023-04-26T08:50:20.128Z,7.15
2023-04-26T08:52:48.184Z,6.93
2023-04-26T08:55:14.808Z,6.68
2023-04-26T08:57:41.363Z,6.36
2023-04-26T09:00:08.335Z,6.26
2023-04-26T09:02:35.117Z,6.59
2023-04-26T09:05:01.958Z,7.08
2023-04-26T09:07:32.787Z,7.51
2023-04-26T09:09:59.560Z,7.74
2023-04-26T09:12:26.180Z,8.02
2023-04-26T09:14:52.734Z,8.11
2023-04-26T09:17:33.154Z,8.01
2023-04-26T09:20:00.211Z,8.36
2023-04-26T09:22:36.422Z,8.17
2023-04-26T09:25:06.342Z,7.94
2023-04-26T09:27:41.208Z,7.40
2023-04-26T09:30:17.659Z,6.96
2023-04-26T09:32:54.706Z,6.68
2023-04-26T09:35:39.900Z,6.88
2023-04-26T09:38:16.598Z,7.32
2023-04-26T09:40:44.602Z,7.75
2023-04-26T09:43:31.385Z,8.24
2023-04-26T09:45:58.328Z,8.70
2023-04-26T09:48:28.812Z,8.95
2023-04-26T09:50:56.780Z,8.75
2023-04-26T09:53:29.858Z,8.55
2023-04-26T09:55:56.591Z,8.30
2023-04-26T09:58:23.141Z,8.07
2023-04-26T10:00:52.775Z,7.82
2023-04-26T10:03:19.797Z,7.56
2023-04-26T10:05:46.483Z,7.33
2023-04-26T10:08:13.056Z,7.23
2023-04-26T10:10:39.613Z,7.22
2023-04-26T10:13:06.172Z,7.21
2023-04-26T10:15:32.793Z,7.29
2023-04-26T10:17:59.423Z,7.39
2023-04-26T10:20:28.104Z,7.54
2023-04-26T10:22:56.328Z,7.54
2023-04-26T10:25:22.853Z,7.44
2023-04-26T10:27:49.651Z,7.58
2023-04-26T10:30:17.422Z,8.11
2023-04-26T10:32:53.311Z,8.53
2023-04-26T10:35:20.078Z,8.68
2023-04-26T10:38:01.885Z,9.05
2023-04-26T10:40:29.024Z,9.30
2023-04-26T10:43:10.821Z,9.16
2023-04-26T10:45:38.017Z,8.82
2023-04-26T10:48:20.811Z,8.33
2023-04-26T10:50:59.464Z,8.08
2023-04-26T10:53:26.139Z,7.84
2023-04-26T10:55:52.689Z,7.71
2023-04-26T10:58:29.114Z,7.60
2023-04-26T11:01:17.488Z,7.46
2023-04-26T11:04:01.644Z,7.42
2023-04-26T11:06:47.578Z,7.55
2023-04-26T11:09:33.219Z,7.76
2023-04-26T11:11:59.792Z,7.93
2023-04-26T11:14:26.495Z,8.07
2023-04-26T11:16:53.015Z,8.07
2023-04-26T11:19:19.643Z,8.20
2023-04-26T11:21:46.171Z,8.31
2023-04-26T11:24:15.456Z,8.39
2023-04-26T11:26:41.991Z,8.66
2023-04-26T11:29:08.550Z,8.90
2023-04-26T11:31:35.117Z,9.03
2023-04-26T11:34:04.550Z,8.95
2023-04-26T11:36:31.096Z,8.71
2023-04-26T11:38:57.664Z,8.42
2023-04-26T11:41:24.190Z,8.26
2023-04-26T11:43:50.853Z,8.16
2023-04-26T11:46:17.514Z,8.20
2023-04-26T11:48:44.084Z,8.49
2023-04-26T11:51:10.657Z,8.55
2023-04-26T11:53:43.471Z,8.54
2023-04-26T11:56:16.258Z,8.60
2023-04-26T11:58:49.908Z,9.16
2023-04-26T12:01:27.129Z,9.85
2023-04-26T12:03:58.000Z,10.63
2023-04-26T12:06:31.634Z,11.11
2023-04-26T12:09:01.524Z,10.80
2023-04-26T12:11:28.122Z,10.17
2023-04-26T12:13:54.720Z,9.73
2023-04-26T12:16:26.662Z,9.30
2023-04-26T12:18:54.840Z,9.57
2023-04-26T12:21:21.473Z,9.91
2023-04-26T12:23:48.003Z,10.40
2023-04-26T12:26:14.696Z,10.64
2023-04-26T12:28:41.309Z,10.74
2023-04-26T12:31:08.057Z,10.94
2023-04-26T12:33:34.882Z,11.31
2023-04-26T12:36:11.359Z,11.20
2023-04-26T12:38:38.765Z,10.42
2023-04-26T12:41:05.489Z,9.83
2023-04-26T12:43:32.064Z,9.50
2023-04-26T12:45:58.698Z,9.15
2023-04-26T12:48:25.305Z,9.07
2023-04-26T12:50:51.824Z,9.22
2023-04-26T12:53:18.458Z,9.42
2023-04-26T12:55:45.001Z,9.88
2023-04-26T12:58:11.834Z,10.17
2023-04-26T13:00:38.554Z,10.56
2023-04-26T13:03:05.252Z,10.94
2023-04-26T13:05:31.948Z,11.38
2023-04-26T13:07:58.579Z,11.69
2023-04-26T13:10:25.119Z,11.77
2023-04-26T13:12:51.671Z,11.93
2023-04-26T13:15:18.277Z,11.50
2023-04-26T13:17:44.837Z,11.15
2023-04-26T13:20:11.825Z,11.42
2023-04-26T13:22:38.397Z,12.03
2023-04-26T13:25:05.316Z,12.44
2023-04-26T13:27:31.956Z,12.62
2023-04-26T13:29:58.752Z,12.62
2023-04-26T13:32:25.566Z,12.21
2023-04-26T13:34:52.166Z,11.79
2023-04-26T13:37:18.741Z,11.45
2023-04-26T13:39:45.320Z,11.90
2023-04-26T13:42:11.932Z,12.27
2023-04-26T13:44:39.328Z,12.84
2023-04-26T13:47:05.888Z,13.60
2023-04-26T13:49:32.423Z,14.02
2023-04-26T13:51:58.945Z,13.51
2023-04-26T13:54:25.509Z,12.53
2023-04-26T13:56:52.476Z,14.52
2023-04-26T13:59:19.309Z,16.31
2023-04-26T14:01:45.873Z,17.63
2023-04-26T14:04:12.766Z,18.37
2023-04-26T14:06:39.468Z,19.29
2023-04-26T14:09:05.998Z,20.01
2023-04-26T14:11:32.560Z,20.59
2023-04-26T14:13:59.189Z,20.36
2023-04-26T14:16:25.828Z,20.79
2023-04-26T14:18:52.416Z,21.72
2023-04-26T14:21:19.279Z,22.00
2023-04-26T14:23:45.802Z,21.92
2023-04-26T14:26:12.413Z,21.79
2023-04-26T14:28:39.051Z,21.68
2023-04-26T14:31:05.615Z,21.80
2023-04-26T14:33:32.190Z,21.64
2023-04-26T14:35:58.755Z,21.49
2023-04-26T14:38:25.307Z,22.35
2023-04-26T14:40:51.861Z,22.17
2023-04-26T14:43:18.408Z,19.14
2023-04-26T14:45:45.249Z,16.05
2023-04-26T14:48:11.915Z,14.10
2023-04-26T14:50:38.450Z,12.77
2023-04-26T14:53:04.977Z,12.40
2023-04-26T14:55:31.534Z,12.37
2023-04-26T14:57:58.076Z,12.09
2023-04-26T15:00:24.629Z,12.44
2023-04-26T15:02:51.269Z,12.72
2023-04-26T15:05:17.931Z,13.20
2023-04-26T15:07:44.445Z,13.66
2023-04-26T15:10:11.056Z,13.29
2023-04-26T15:12:37.668Z,12.93
2023-04-26T15:15:04.497Z,12.26
2023-04-26T15:17:34.017Z,11.86
2023-04-26T15:20:03.498Z,11.73
2023-04-26T15:22:30.105Z,11.70
2023-04-26T15:24:56.661Z,11.85
2023-04-26T15:27:23.201Z,11.95
2023-04-26T15:29:49.760Z,12.20
2023-04-26T15:32:16.329Z,12.91
2023-04-26T15:34:42.894Z,11.69
2023-04-26T15:37:09.743Z,11.04
2023-04-26T15:39:36.329Z,10.85
2023-04-26T15:42:03.937Z,10.76
2023-04-26T15:44:30.549Z,10.65
2023-04-26T15:46:57.273Z,10.79
2023-04-26T15:49:24.597Z,11.78
2023-04-26T15:51:51.144Z,11.99
2023-04-26T15:54:17.686Z,14.31
2023-04-26T15:56:44.958Z,14.34
2023-04-26T15:59:11.495Z,12.73
2023-04-26T16:01:38.143Z,12.18
2023-04-26T16:04:05.181Z,13.18
2023-04-26T16:06:31.894Z,12.56
2023-04-26T16:08:58.506Z,12.47
2023-04-26T16:11:25.208Z,12.86
2023-04-26T16:13:51.834Z,11.65
2023-04-26T16:16:19.103Z,10.86
2023-04-26T16:18:45.682Z,10.28
2023-04-26T16:21:12.234Z,9.80
2023-04-26T16:23:39.701Z,9.51
2023-04-26T16:26:06.300Z,9.40
2023-04-26T16:28:32.818Z,9.36
2023-04-26T16:30:59.407Z,9.37
2023-04-26T16:33:26.174Z,9.39
2023-04-26T16:35:53.408Z,9.46
2023-04-26T16:38:20.063Z,9.50
2023-04-26T16:40:56.110Z,9.50
2023-04-26T16:43:22.724Z,9.44
2023-04-26T16:45:59.726Z,9.37
2023-04-26T16:48:26.314Z,9.14
2023-04-26T16:50:53.012Z,9.08
2023-04-26T16:53:19.880Z,8.99
2023-04-26T16:55:46.919Z,8.87
2023-04-26T16:58:13.642Z,8.77
2023-04-26T17:00:40.142Z,8.72
2023-04-26T17:03:06.850Z,8.64
2023-04-26T17:05:43.940Z,8.63
2023-04-26T17:08:10.450Z,8.70
2023-04-26T17:10:37.291Z,8.61
2023-04-26T17:13:04.401Z,8.48
2023-04-26T17:15:31.005Z,8.50
2023-04-26T17:17:57.560Z,8.46
2023-04-26T17:20:24.167Z,8.44
2023-04-26T17:22:50.697Z,8.42
2023-04-26T17:25:17.333Z,8.31
2023-04-26T17:27:43.898Z,8.22
2023-04-26T17:30:10.650Z,8.11
2023-04-26T17:32:37.191Z,8.03
2023-04-26T17:35:03.902Z,8.09
2023-04-26T17:37:30.466Z,7.94
2023-04-26T17:39:57.063Z,7.88
2023-04-26T17:42:23.639Z,7.79
2023-04-26T17:44:50.170Z,7.82
2023-04-26T17:47:16.793Z,7.72
2023-04-26T17:49:43.353Z,7.67
2023-04-26T17:52:09.882Z,7.70
2023-04-26T17:54:36.428Z,7.72
2023-04-26T17:57:02.981Z,7.66
2023-04-26T17:59:29.516Z,7.50
2023-04-26T18:01:56.440Z,7.38
2023-04-26T18:04:23.169Z,7.45
2023-04-26T18:06:49.803Z,7.38
2023-04-26T18:09:16.369Z,7.26
2023-04-26T18:11:42.924Z,7.23
2023-04-26T18:14:09.423Z,7.16
2023-04-26T18:16:36.001Z,7.09
2023-04-26T18:19:02.558Z,7.10
2023-04-26T18:21:29.136Z,7.01
2023-04-26T18:23:55.678Z,6.90
2023-04-26T18:26:22.222Z,6.86
2023-04-26T18:28:48.725Z,6.81
2023-04-26T18:31:15.367Z,6.83
2023-04-26T18:33:41.917Z,6.80
2023-04-26T18:36:08.578Z,6.64
2023-04-26T18:38:35.085Z,6.58
2023-04-26T18:41:01.660Z,6.55
2023-04-26T18:43:28.182Z,6.50
2023-04-26T18:45:54.739Z,6.41
2023-04-26T18:48:21.266Z,6.35
2023-04-26T18:50:54.269Z,6.27
2023-04-26T18:53:21.081Z,6.23
2023-04-26T18:55:47.918Z,6.25
2023-04-26T18:58:15.346Z,6.17
2023-04-26T19:00:42.338Z,6.16
2023-04-26T19:03:09.082Z,6.15
2023-04-26T19:05:35.732Z,6.09
2023-04-26T19:08:02.262Z,6.08
2023-04-26T19:10:28.834Z,6.06
2023-04-26T19:12:55.361Z,6.03
2023-04-26T19:15:21.896Z,6.05
2023-04-26T19:17:50.061Z,5.99
2023-04-26T19:20:17.171Z,5.98
2023-04-26T19:22:43.688Z,5.95
2023-04-26T19:25:10.324Z,5.87
2023-04-26T19:27:36.893Z,5.82
2023-04-26T19:30:03.540Z,5.77
2023-04-26T19:32:30.092Z,5.73
2023-04-26T19:34:56.624Z,5.66
2023-04-26T19:37:23.178Z,5.62
2023-04-26T19:39:49.730Z,5.58
2023-04-26T19:42:16.285Z,5.53
2023-04-26T19:44:42.827Z,5.59
2023-04-26T19:47:09.483Z,5.57
2023-04-26T19:49:36.071Z,5.55
2023-04-26T19:52:02.639Z,5.60
2023-04-26T19:54:29.186Z,5.61
2023-04-26T19:56:55.712Z,5.55
2023-04-26T19:59:22.264Z,5.49
